Time;durP1;ratioP1;P1;durP2;ratioP2;P2;SDS_P1;SDS_P2;PMS_P1;PMS_P2;Temp;Humidity;BMP_temperature;BMP_pressure;BME280_temperature;BME280_humidity;BME280_pressure;Samples;Min_cycle;Max_cycle;Signal;HPM_P1;HPM_P2
2022/01/22 00:01:24;;;;;;;21.20;7.95;;;;;;;3.98;100.00;103229.06;10455747;28;20057;-58
2022/01/22 00:06:27;;;;;;;20.48;7.28;;;;;;;4.01;100.00;103223.06;10456154;28;20041;-52
2022/01/22 00:11:35;;;;;;;19.27;6.63;;;;;;;4.01;100.00;103223.91;10455949;28;20053;-56
2022/01/22 00:16:37;;;;;;;29.52;7.47;;;;;;;4.01;100.00;103223.91;10457143;28;20053;-55
2022/01/22 00:21:40;;;;;;;21.40;7.53;;;;;;;4.11;100.00;103231.78;10455937;28;20523;-55
2022/01/22 00:26:44;;;;;;;16.75;6.95;;;;;;;4.16;100.00;103224.91;10458484;28;20511;-56
2022/01/22 00:31:46;;;;;;;23.05;7.30;;;;;;;4.11;100.00;103226.59;10464031;28;20049;-53
2022/01/22 00:36:48;;;;;;;20.30;6.50;;;;;;;4.12;100.00;103211.06;10463568;28;20474;-51
2022/01/22 00:41:51;;;;;;;11.93;6.97;;;;;;;4.17;100.00;103211.06;10463783;28;20049;-54
2022/01/22 00:46:53;;;;;;;15.85;7.22;;;;;;;4.12;100.00;103221.44;10463416;28;20045;-55
2022/01/22 00:51:56;;;;;;;22.95;7.28;;;;;;;4.10;100.00;103210.16;10464851;28;20073;-55
2022/01/22 00:56:58;;;;;;;15.75;6.55;;;;;;;4.12;100.00;103211.06;10463081;28;20056;-53
2022/01/22 01:02:01;;;;;;;19.17;8.50;;;;;;;4.07;100.00;103210.16;10461825;28;20067;-55
2022/01/22 01:07:05;;;;;;;22.67;8.30;;;;;;;4.07;100.00;103211.00;10462700;28;20087;-57
2022/01/22 01:12:11;;;;;;;19.90;7.05;;;;;;;4.10;100.00;103217.94;10462326;28;20060;-55
2022/01/22 01:17:45;;;;;;;23.55;9.38;;;;;;;4.08;100.00;103220.53;10462060;28;20404;-54
2022/01/22 01:33:34;;;;;;;24.17;10.32;;;;;;;4.23;100.00;103226.69;10462364;28;20053;-58
2022/01/22 01:38:41;;;;;;;26.13;10.80;;;;;;;4.16;100.00;103230.09;10460779;28;20045;-55
2022/01/22 01:43:43;;;;;;;40.45;11.93;;;;;;;4.16;100.00;103220.59;10461743;28;20044;-54
2022/01/22 01:48:47;;;;;;;24.77;10.50;;;;;;;4.19;100.00;103225.81;10461769;28;20049;-58
2022/01/22 01:58:53;;;;;;;22.13;12.38;;;;;;;4.18;100.00;103218.88;10460761;28;20163;-57
2022/01/22 02:03:55;;;;;;;26.73;11.93;;;;;;;4.24;100.00;103223.25;10459169;28;20417;-54
2022/01/22 02:08:58;;;;;;;30.20;13.60;;;;;;;4.19;100.00;103227.53;10461097;28;20053;-54
2022/01/22 02:23:30;;;;;;;40.38;16.05;;;;;;;4.19;100.00;103230.13;10460241;28;20107;-52
2022/01/22 02:24:51;;;;;;;32.72;15.55;;;;;;;4.18;100.00;103229.25;10459709;28;20045;-57
2022/01/22 02:29:53;;;;;;;25.83;14.23;;;;;;;4.30;100.00;103227.63;10459114;28;20052;-55
2022/01/22 02:35:06;;;;;;;30.80;15.82;;;;;;;4.28;100.00;103228.47;10459301;28;20064;-58
2022/01/22 02:40:14;;;;;;;28.60;17.23;;;;;;;4.26;100.00;103222.41;10458900;28;20052;-57
2022/01/22 02:45:20;;;;;;;27.20;14.38;;;;;;;4.39;100.00;103217.31;10459915;28;20501;-54
2022/01/22 02:50:22;;;;;;;31.77;18.30;;;;;;;4.32;100.00;103216.41;10459548;28;20044;-58
2022/01/22 02:55:26;;;;;;;36.90;17.45;;;;;;;4.39;100.00;103225.97;10458804;28;20064;-56
2022/01/22 03:00:28;;;;;;;36.58;18.30;;;;;;;4.37;100.00;103221.59;10458773;28;20056;-55
2022/01/22 03:05:31;;;;;;;35.25;17.92;;;;;;;4.33;100.00;103222.47;10458288;28;20051;-54
2022/01/22 03:10:33;;;;;;;40.55;21.52;;;;;;;4.30;100.00;103225.03;10457661;28;20405;-54
2022/01/22 03:21:01;;;;;;;34.17;17.25;;;;;;;4.21;100.00;103224.09;10457319;28;20049;-57
2022/01/22 03:31:25;;;;;;;29.85;18.67;;;;;;;4.23;100.00;103224.97;10457275;28;20045;-55
2022/01/22 03:36:29;;;;;;;31.88;17.45;;;;;;;4.34;100.00;103230.25;10456941;28;20052;-54
2022/01/22 03:41:32;;;;;;;34.03;16.95;;;;;;;4.40;100.00;103230.28;10456523;28;20049;-57
2022/01/22 03:46:36;;;;;;;34.78;16.30;;;;;;;4.36;100.00;103225.94;10455421;28;20406;-56
2022/01/22 03:51:38;;;;;;;24.67;15.90;;;;;;;4.43;100.00;103237.22;10456302;28;20512;-52
2022/01/22 03:56:45;;;;;;;31.08;14.73;;;;;;;4.48;100.00;103235.53;10456516;28;20054;-53
2022/01/22 04:12:35;;;;;;;28.10;16.35;;;;;;;4.49;100.00;103231.19;10468204;28;20097;-53
2022/01/22 04:28:13;;;;;;;25.67;14.27;;;;;;;4.59;100.00;103235.59;10470025;28;20041;-53
2022/01/22 04:33:15;;;;;;;38.70;16.00;;;;;;;4.53;100.00;103230.38;10469778;28;20052;-58
2022/01/22 04:38:18;;;;;;;32.78;15.77;;;;;;;4.56;100.00;103235.59;10469542;28;20048;-54
2022/01/22 04:43:20;;;;;;;28.23;12.95;;;;;;;4.59;100.00;103238.19;10470014;28;20053;-53
2022/01/22 04:48:28;;;;;;;27.58;12.65;;;;;;;4.64;100.00;103245.16;10468163;28;20053;-53
2022/01/22 04:58:52;;;;;;;19.27;12.25;;;;;;;4.75;100.00;103237.44;10469347;28;20045;-54
2022/01/22 05:03:54;;;;;;;26.88;12.07;;;;;;;4.76;100.00;103233.13;10468946;28;20052;-53
2022/01/22 05:08:57;;;;;;;36.10;12.63;;;;;;;4.74;100.00;103232.22;10468811;28;20049;-53
2022/01/22 05:13:59;;;;;;;26.73;12.35;;;;;;;4.74;100.00;103222.75;10463664;28;20056;-52
2022/01/22 05:19:10;;;;;;;25.95;12.43;;;;;;;4.69;100.00;103231.34;10462583;28;20045;-56
2022/01/22 05:24:18;;;;;;;;;;;;;;;4.76;100.00;103217.56;10463397;28;20489;-58
2022/01/22 05:29:32;;;;;;;20.02;11.68;;;;;;;4.73;100.00;103220.13;10462192;28;19925;-56
2022/01/22 05:40:00;;;;;;;22.10;12.35;;;;;;;4.81;100.00;103219.31;10461587;28;20127;-57
2022/01/22 05:45:07;;;;;;;19.95;12.35;;;;;;;4.78;100.00;103231.41;10459845;28;20048;-52
2022/01/22 05:50:14;;;;;;;19.13;10.02;;;;;;;4.79;100.00;103227.94;10461531;28;20063;-55
2022/01/22 06:00:31;;;;;;;26.90;12.27;;;;;;;4.77;100.00;103238.31;10461443;28;20049;-54
2022/01/22 06:05:33;;;;;;;23.70;10.65;;;;;;;4.92;100.00;103244.47;10460631;28;20056;-57
2022/01/22 06:10:35;;;;;;;30.67;10.57;;;;;;;4.82;100.00;103244.41;10460063;28;20052;-55
2022/01/22 06:15:38;;;;;;;24.60;12.52;;;;;;;4.73;100.00;103244.34;10459912;28;20085;-54
2022/01/22 06:20:40;;;;;;;34.10;13.30;;;;;;;4.81;100.00;103237.47;10458567;28;20057;-57
2022/01/22 06:25:43;;;;;;;34.55;14.30;;;;;;;4.75;100.00;103244.38;10459447;28;20059;-55
2022/01/22 06:30:46;;;;;;;27.60;13.15;;;;;;;4.83;100.00;103250.47;10459519;28;20056;-55
2022/01/22 06:35:48;;;;;;;28.52;13.98;;;;;;;4.89;100.00;103253.09;10459462;28;20152;-55
2022/01/22 06:46:11;;;;;;;50.33;18.73;;;;;;;4.75;100.00;103263.38;10458698;28;20477;-55
2022/01/22 06:51:14;;;;;;;47.58;19.88;;;;;;;4.79;100.00;103272.94;10458691;28;20485;-56
2022/01/22 06:56:20;;;;;;;27.63;18.75;;;;;;;4.71;100.00;103276.31;10458741;28;20053;-59
2022/01/22 07:01:22;;;;;;;36.67;18.60;;;;;;;4.83;100.00;103286.81;10458494;28;20041;-55
2022/01/22 07:06:25;;;;;;;42.83;20.88;;;;;;;4.83;100.00;103286.81;10457794;28;20512;-54
2022/01/22 07:11:27;;;;;;;33.22;18.85;;;;;;;4.79;100.00;103288.53;10457687;28;20060;-57
2022/01/22 07:16:30;;;;;;;32.53;18.95;;;;;;;4.84;100.00;103288.53;10458316;28;20052;-57
2022/01/22 07:21:32;;;;;;;50.20;20.75;;;;;;;4.93;100.00;103304.19;10458428;28;20056;-56
2022/01/22 07:26:35;;;;;;;46.28;20.42;;;;;;;4.90;100.00;103301.56;10457267;28;20529;-54
2022/01/22 07:31:37;;;;;;;38.33;17.58;;;;;;;4.90;100.00;103298.09;10456280;28;20049;-55
2022/01/22 07:36:40;;;;;;;33.33;16.80;;;;;;;4.95;100.00;103312.84;10456346;28;20064;-54
2022/01/22 07:41:42;;;;;;;23.98;13.50;;;;;;;5.04;100.00;103304.22;10456836;28;20489;-54
2022/01/22 07:46:45;;;;;;;23.73;13.98;;;;;;;5.10;100.00;103306.03;10456628;28;20045;-58
2022/01/22 07:51:48;;;;;;;26.30;13.45;;;;;;;5.06;100.00;103297.34;10456619;28;20072;-56
2022/01/22 07:56:50;;;;;;;27.35;12.45;;;;;;;5.10;100.00;103293.91;10458524;28;20064;-56
2022/01/22 08:01:52;;;;;;;24.75;10.30;;;;;;;5.08;100.00;103286.94;10455609;28;20052;-54
2022/01/22 08:06:56;;;;;;;19.27;9.90;;;;;;;5.12;100.00;103299.97;10456740;28;20106;-57
2022/01/22 08:11:59;;;;;;;21.73;7.68;;;;;;;5.24;100.00;103293.97;10456518;28;20057;-58
2022/01/22 08:17:01;;;;;;;16.27;6.43;;;;;;;5.25;100.00;103300.03;10456429;28;20053;-56
2022/01/22 08:22:04;;;;;;;20.85;7.75;;;;;;;5.31;100.00;103307.84;10456038;28;20059;-58
2022/01/22 08:27:31;;;;;;;16.52;6.18;;;;;;;5.38;100.00;103307.03;10456321;28;20060;-53
2022/01/22 08:37:41;;;;;;;18.63;5.93;;;;;;;5.52;100.00;103318.34;10456988;28;20056;-53
2022/01/22 08:42:45;;;;;;;16.35;4.90;;;;;;;5.56;100.00;103319.22;10455638;28;20512;-56
2022/01/22 08:47:47;;;;;;;15.73;6.78;;;;;;;5.50;100.00;103316.63;10458826;28;20045;-56
2022/01/22 08:52:49;;;;;;;13.10;5.63;;;;;;;5.62;100.00;103326.19;10463815;28;20049;-59
2022/01/22 08:57:52;;;;;;;17.67;6.13;;;;;;;5.49;100.00;103333.91;10463241;28;20060;-56
2022/01/22 09:02:54;;;;;;;17.33;5.95;;;;;;;5.58;100.00;103340.88;10462730;28;20485;-55
2022/01/22 09:07:57;;;;;;;8.90;4.35;;;;;;;5.68;100.00;103354.78;10462688;28;20049;-55
2022/01/22 09:12:59;;;;;;;11.20;5.20;;;;;;;5.75;100.00;103344.44;10463992;28;20048;-58
2022/01/22 09:18:01;;;;;;;18.88;5.60;;;;;;;5.81;100.00;103343.56;10463029;28;20049;-55
2022/01/22 09:23:05;;;;;;;15.55;5.30;;;;;;;5.79;100.00;103347.03;10462094;28;20382;-57
2022/01/22 09:28:10;;;;;;;15.00;6.03;;;;;;;5.80;100.00;103349.66;10461730;28;20400;-59
2022/01/22 09:33:13;;;;;;;18.65;5.50;;;;;;;5.87;100.00;103358.34;10462427;28;20045;-57
2022/01/22 09:38:16;;;;;;;18.75;6.22;;;;;;;5.69;100.00;103359.13;10461570;28;20049;-52
2022/01/22 09:43:18;;;;;;;13.82;4.88;;;;;;;5.80;100.00;103362.66;10461773;28;20053;-55
2022/01/22 09:48:20;;;;;;;10.77;4.45;;;;;;;5.83;100.00;103361.78;10461151;28;20056;-55
2022/01/22 09:53:23;;;;;;;12.75;4.38;;;;;;;5.94;100.00;103366.16;10463622;28;20060;-53
2022/01/22 09:58:25;;;;;;;13.23;4.15;;;;;;;5.88;100.00;103371.31;10460097;28;20053;-57
2022/01/22 10:03:27;;;;;;;14.50;4.57;;;;;;;5.95;100.00;103372.22;10460365;28;20049;-53
2022/01/22 10:08:32;;;;;;;8.52;3.60;;;;;;;5.81;100.00;103377.38;10460363;28;20045;-53
2022/01/22 10:13:42;;;;;;;13.05;4.60;;;;;;;5.82;100.00;103378.25;10460569;28;20049;-54
2022/01/22 10:18:45;;;;;;;13.82;5.28;;;;;;;6.07;100.00;103374.91;10459881;28;20485;-55
2022/01/22 10:23:48;;;;;;;12.60;4.82;;;;;;;5.98;100.00;103384.41;10459644;28;20048;-56
2022/01/22 10:28:55;;;;;;;10.75;3.90;;;;;;;5.99;100.00;103388.75;10459088;28;20049;-58
2022/01/22 10:34:04;;;;;;;13.05;4.55;;;;;;;6.04;100.00;103393.09;10459453;28;20060;-56
2022/01/22 10:39:23;;;;;;;17.65;5.50;;;;;;;6.02;100.00;103394.81;10459274;28;20060;-55
2022/01/22 10:44:46;;;;;;;20.27;7.78;;;;;;;6.03;100.00;103393.94;10458998;28;20400;-56
2022/01/22 10:49:48;;;;;;;15.60;7.57;;;;;;;5.93;100.00;103385.22;10458663;28;20382;-54
2022/01/22 10:55:01;;;;;;;20.13;8.20;;;;;;;5.91;100.00;103383.47;10458477;28;20489;-54
2022/01/22 11:00:04;;;;;;;19.52;8.52;;;;;;;6.02;100.00;103374.03;10458826;28;20041;-54
2022/01/22 11:05:08;;;;;;;18.67;8.48;;;;;;;6.06;100.00;103388.75;10458009;28;20049;-58
2022/01/22 11:10:10;;;;;;;20.85;9.82;;;;;;;6.06;100.00;103372.28;10457055;28;20057;-57
2022/01/22 11:15:13;;;;;;;22.13;12.18;;;;;;;6.08;100.00;103374.00;10459168;28;20052;-55
2022/01/22 11:20:15;;;;;;;27.50;11.98;;;;;;;6.02;100.00;103366.22;10457623;28;20052;-55
2022/01/22 11:25:19;;;;;;;24.77;13.15;;;;;;;6.21;100.00;103361.06;10457279;28;20406;-57
2022/01/22 11:30:27;;;;;;;21.65;13.60;;;;;;;6.23;100.00;103364.53;10457353;28;20053;-53
2022/01/22 11:36:08;;;;;;;29.58;15.35;;;;;;;6.18;100.00;103374.06;10457055;28;20387;-55
2022/01/22 11:41:19;;;;;;;20.92;13.27;;;;;;;6.28;100.00;103375.81;10457439;28;20045;-54
2022/01/22 11:46:28;;;;;;;28.20;14.35;;;;;;;6.30;100.00;103374.97;10456083;28;20060;-57
2022/01/22 11:51:31;;;;;;;25.33;13.52;;;;;;;6.14;100.00;103380.97;10457891;28;20048;-58
2022/01/22 11:56:59;;;;;;;21.35;10.98;;;;;;;6.12;100.00;103369.72;10457303;28;20138;-55
2022/01/22 12:02:03;;;;;;;15.18;9.02;;;;;;;6.14;100.00;103367.97;10454668;28;20068;-55
2022/01/22 12:07:07;;;;;;;24.63;11.20;;;;;;;6.07;100.00;103368.81;10456480;28;20440;-56
2022/01/22 12:18:04;;;;;;;26.85;12.93;;;;;;;6.22;100.00;103371.47;10456382;28;20056;-55
2022/01/22 12:23:07;;;;;;;17.50;9.93;;;;;;;6.14;100.00;103373.19;10460399;28;20056;-53
2022/01/22 12:28:13;;;;;;;28.10;12.57;;;;;;;6.22;100.00;103368.88;10464535;28;20045;-56
2022/01/22 12:33:39;;;;;;;17.83;10.00;;;;;;;6.11;100.00;103371.44;10464242;28;20404;-55
2022/01/22 12:38:49;;;;;;;13.15;8.77;;;;;;;6.17;100.00;103378.41;10460718;28;20049;-58
2022/01/22 12:44:00;;;;;;;14.15;7.90;;;;;;;6.19;100.00;103374.06;10464350;28;20052;-56
2022/01/22 12:49:24;;;;;;;10.57;7.00;;;;;;;6.15;100.00;103369.69;10464250;28;20045;-56
2022/01/22 12:54:31;;;;;;;13.13;7.10;;;;;;;6.09;100.00;103382.72;10463266;28;20075;-54
2022/01/22 12:59:52;;;;;;;14.75;7.00;;;;;;;6.26;100.00;103383.59;10463591;28;20041;-58
2022/01/22 13:05:02;;;;;;;18.10;7.43;;;;;;;6.12;100.00;103375.78;10463251;28;20045;-57
2022/01/22 13:10:07;;;;;;;11.65;8.30;;;;;;;6.15;100.00;103380.09;10464332;28;20060;-57
2022/01/22 13:15:11;;;;;;;12.95;8.75;;;;;;;6.18;100.00;103380.13;10462172;28;20053;-56
2022/01/22 13:20:20;;;;;;;17.40;11.15;;;;;;;6.09;100.00;103367.97;10461690;28;20055;-58
2022/01/22 13:25:22;;;;;;;18.85;11.75;;;;;;;6.05;100.00;103373.16;10462105;28;20508;-58
2022/01/22 13:30:37;;;;;;;17.42;11.10;;;;;;;6.10;100.00;103367.09;10462396;28;20052;-57
2022/01/22 13:52:03;;;;;;;19.55;9.70;;;;;;;6.23;100.00;103364.53;10461827;28;20663;-55
2022/01/22 13:57:09;;;;;;;14.95;10.05;;;;;;;6.13;100.00;103368.84;10459712;28;20497;-59
2022/01/22 14:07:29;;;;;;;19.85;10.25;;;;;;;6.13;100.00;103350.63;10460338;28;20049;-56
2022/01/22 14:12:40;;;;;;;15.23;9.82;;;;;;;6.10;100.00;103351.50;10460854;28;20044;-57
2022/01/22 14:18:19;;;;;;;16.83;8.03;;;;;;;6.10;100.00;103361.00;10460088;28;20408;-57
2022/01/22 14:23:25;;;;;;;18.00;8.55;;;;;;;6.28;100.00;103365.41;10453584;28;20102;-55
2022/01/22 14:28:39;;;;;;;17.08;8.27;;;;;;;6.23;100.00;103351.50;10459591;28;20064;-57
2022/01/22 14:33:42;;;;;;;11.60;8.65;;;;;;;6.28;100.00;103363.66;10459246;28;20398;-58
2022/01/22 14:44:20;;;;;;;15.85;8.32;;;;;;;6.37;100.00;103348.94;10458275;28;20048;-56
2022/01/22 14:49:33;;;;;;;14.10;8.75;;;;;;;6.05;100.00;103353.22;10458625;28;20103;-54
2022/01/22 14:54:41;;;;;;;13.10;10.27;;;;;;;6.18;100.00;103355.84;10458972;28;20059;-56
2022/01/22 14:59:44;;;;;;;20.83;10.80;;;;;;;6.15;100.00;103341.09;10458781;28;20041;-58
2022/01/22 15:04:46;;;;;;;17.27;10.90;;;;;;;6.14;100.00;103337.63;10458122;28;20041;-55
2022/01/22 15:09:49;;;;;;;22.83;12.80;;;;;;;6.18;100.00;103330.69;10459326;28;20389;-57
2022/01/22 15:14:52;;;;;;;21.15;12.43;;;;;;;6.05;100.00;103331.53;10458239;28;20060;-57
2022/01/22 15:19:55;;;;;;;22.80;11.60;;;;;;;6.13;100.00;103329.81;10457697;28;20057;-55
2022/01/22 15:24:59;;;;;;;24.40;12.95;;;;;;;6.04;100.00;103332.41;10457596;28;20081;-54
2022/01/22 15:30:18;;;;;;;26.38;15.43;;;;;;;6.11;100.00;103327.22;10457266;28;20103;-57
2022/01/22 15:35:21;;;;;;;22.45;15.43;;;;;;;6.23;100.00;103346.31;10457646;28;20049;-56
2022/01/22 15:40:26;;;;;;;28.90;18.98;;;;;;;6.01;100.00;103353.19;10457515;28;20053;-58
2022/01/22 15:45:33;;;;;;;27.20;19.77;;;;;;;6.03;100.00;103356.66;10456406;28;20482;-55
2022/01/22 15:50:37;;;;;;;26.13;18.88;;;;;;;6.14;100.00;103360.19;10456710;28;20562;-57
2022/01/22 15:55:47;;;;;;;37.97;22.90;;;;;;;5.93;100.00;103345.34;10456827;28;20076;-53
2022/01/22 16:00:50;;;;;;;39.05;25.52;;;;;;;5.95;100.00;103357.50;10456652;28;20493;-54
2022/01/22 16:05:57;;;;;;;36.78;23.65;;;;;;;5.95;100.00;103367.00;10456163;28;20393;-54
2022/01/22 16:10:59;;;;;;;35.15;25.55;;;;;;;5.92;100.00;103356.63;10456933;28;20053;-58
2022/01/22 16:16:03;;;;;;;40.97;26.20;;;;;;;5.95;100.00;103361.81;10455838;28;20595;-55
2022/01/22 16:21:05;;;;;;;44.53;29.33;;;;;;;5.86;100.00;103369.59;10455644;28;20099;-57
2022/01/22 16:26:08;;;;;;;45.75;30.17;;;;;;;5.84;100.00;103372.19;10456176;28;20128;-57
2022/01/22 16:31:10;;;;;;;52.17;30.33;;;;;;;5.81;100.00;103374.75;10457629;28;20049;-57
2022/01/22 16:36:13;;;;;;;44.58;29.52;;;;;;;5.86;100.00;103386.06;10456086;28;20045;-53
2022/01/22 16:41:16;;;;;;;39.55;29.40;;;;;;;5.87;100.00;103390.41;10455607;28;20045;-53
2022/01/22 16:56:45;;;;;;;48.28;29.48;;;;;;;5.76;100.00;103397.28;10455504;28;20059;-52
2022/01/22 17:02:08;;;;;;;45.13;30.23;;;;;;;5.74;100.00;103397.25;10456454;28;20053;-56
2022/01/22 17:07:19;;;;;;;42.15;27.83;;;;;;;5.80;100.00;103409.44;10455645;28;20052;-57
2022/01/22 17:17:43;;;;;;;49.25;31.40;;;;;;;5.73;100.00;103411.16;10463480;28;20052;-56
2022/01/22 17:22:45;;;;;;;33.38;26.20;;;;;;;5.76;100.00;103416.34;10462369;28;20059;-51
2022/01/22 17:27:47;;;;;;;39.63;26.58;;;;;;;5.73;100.00;103418.06;10462442;28;20057;-54
2022/01/22 17:32:50;;;;;;;38.25;26.55;;;;;;;5.70;100.00;103431.94;10462114;28;20049;-52
2022/01/22 17:38:09;;;;;;;36.95;27.45;;;;;;;5.63;100.00;103422.38;10462119;28;20052;-55
2022/01/22 17:43:13;;;;;;;42.88;27.17;;;;;;;5.75;100.00;103424.16;10461545;28;20091;-55
2022/01/22 17:48:16;;;;;;;38.10;27.45;;;;;;;5.65;100.00;103423.22;10462765;28;20077;-56
2022/01/22 17:53:18;;;;;;;37.83;28.35;;;;;;;5.63;100.00;103424.06;10461246;28;20053;-58
2022/01/22 17:58:21;;;;;;;44.22;28.38;;;;;;;5.61;100.00;103418.88;10460932;28;20057;-57
2022/01/22 18:03:38;;;;;;;40.90;27.58;;;;;;;5.65;100.00;103418.03;10461031;28;20045;-58
2022/01/22 18:08:41;;;;;;;37.10;26.67;;;;;;;5.63;100.00;103403.28;10460351;28;20489;-55
2022/01/22 18:13:43;;;;;;;38.88;27.27;;;;;;;5.48;100.00;103398.88;10460484;28;20055;-56
2022/01/22 18:18:46;;;;;;;43.13;28.52;;;;;;;5.40;100.00;103404.03;10459924;28;20425;-55
2022/01/22 18:24:06;;;;;;;43.45;29.15;;;;;;;5.44;100.00;103405.78;10460243;28;20449;-58
2022/01/22 18:29:12;;;;;;;43.03;26.77;;;;;;;5.52;100.00;103418.81;10459910;28;20056;-57
2022/01/22 18:34:15;;;;;;;44.80;30.35;;;;;;;5.51;100.00;103414.47;10460066;28;20049;-57
2022/01/22 18:39:18;;;;;;;43.25;29.52;;;;;;;5.41;100.00;103405.75;10459244;28;20513;-54
2022/01/22 18:44:20;;;;;;;46.13;33.47;;;;;;;5.30;100.00;103410.03;10457748;28;20060;-54
2022/01/22 18:49:23;;;;;;;51.53;32.97;;;;;;;5.29;100.00;103416.94;10458780;28;20501;-52
2022/01/22 18:54:25;;;;;;;52.22;34.63;;;;;;;5.21;100.00;103409.13;10458776;28;20440;-54
2022/01/22 18:59:28;;;;;;;52.05;32.92;;;;;;;5.16;100.00;103399.53;10458397;28;20416;-55
2022/01/22 19:04:30;;;;;;;46.70;33.15;;;;;;;5.19;100.00;103412.53;10459008;28;20513;-56
2022/01/22 19:09:32;;;;;;;49.45;32.38;;;;;;;5.18;100.00;103413.41;10458743;28;20045;-57
2022/01/22 19:14:35;;;;;;;47.50;32.80;;;;;;;5.26;100.00;103429.94;10458051;28;20457;-53
2022/01/22 19:19:37;;;;;;;57.67;37.47;;;;;;;5.18;100.00;103432.47;10458084;28;20063;-55
2022/01/22 19:29:54;;;;;;;56.40;36.33;;;;;;;5.21;100.00;103435.09;10457425;28;20041;-57
2022/01/22 19:34:56;;;;;;;53.83;35.42;;;;;;;5.15;100.00;103427.25;10456514;28;20052;-56
2022/01/22 19:39:58;;;;;;;52.30;34.45;;;;;;;5.17;100.00;103433.31;10457012;28;20481;-58
2022/01/22 19:45:01;;;;;;;53.03;34.60;;;;;;;5.24;100.00;103435.97;10458003;28;20379;-56
2022/01/22 19:50:04;;;;;;;48.28;33.65;;;;;;;5.18;100.00;103423.81;10457287;28;20056;-56
2022/01/22 19:55:08;;;;;;;58.55;36.63;;;;;;;5.21;100.00;103426.41;10456858;28;20404;-54
2022/01/22 20:00:11;;;;;;;45.45;32.53;;;;;;;5.27;100.00;103412.59;10456575;28;20488;-53
2022/01/22 20:05:14;;;;;;;59.47;35.95;;;;;;;5.15;100.00;103427.25;10456339;28;20386;-57
2022/01/22 20:10:23;;;;;;;53.20;34.20;;;;;;;5.18;100.00;103427.25;10456237;28;20055;-54
2022/01/22 20:15:26;;;;;;;49.45;34.53;;;;;;;5.15;100.00;103429.84;10456449;28;20064;-54
2022/01/22 20:20:28;;;;;;;55.85;35.90;;;;;;;5.23;100.00;103424.72;10456982;28;20057;-56
2022/01/22 20:25:51;;;;;;;57.00;36.35;;;;;;;5.14;100.00;103433.28;10455881;28;20041;-56
2022/01/22 20:30:53;;;;;;;48.13;32.65;;;;;;;5.10;100.00;103428.06;10456156;28;20053;-53
2022/01/22 20:35:56;;;;;;;55.08;34.60;;;;;;;5.21;100.00;103436.78;10455570;28;20060;-56
2022/01/22 20:40:58;;;;;;;54.40;35.08;;;;;;;5.07;100.00;103435.84;10455837;28;20064;-54
2022/01/22 20:46:00;;;;;;;51.05;33.80;;;;;;;5.07;100.00;103436.69;10462484;28;20045;-54
2022/01/22 20:51:03;;;;;;;55.55;33.33;;;;;;;5.17;100.00;103430.72;10463573;28;20401;-57
2022/01/22 20:56:05;;;;;;;51.38;35.30;;;;;;;5.05;100.00;103440.16;10464463;28;20049;-55
2022/01/22 21:01:14;;;;;;;55.00;35.38;;;;;;;5.17;100.00;103448.88;10465355;28;20059;-53
2022/01/22 21:06:17;;;;;;;55.50;36.00;;;;;;;5.14;100.00;103440.22;10463359;28;20498;-56
2022/01/22 21:11:20;;;;;;;52.75;34.45;;;;;;;5.20;100.00;103435.06;10462872;28;20060;-57
2022/01/22 21:16:22;;;;;;;59.45;32.63;;;;;;;5.13;100.00;103441.09;10463171;28;20057;-53
2022/01/22 21:21:26;;;;;;;54.70;34.85;;;;;;;5.11;100.00;103432.38;10462685;28;20049;-56
2022/01/22 21:26:29;;;;;;;51.83;35.58;;;;;;;5.05;100.00;103440.16;10462163;28;20390;-57
2022/01/22 21:31:31;;;;;;;54.35;36.70;;;;;;;5.11;100.00;103441.06;10461968;28;20058;-55
2022/01/22 21:36:44;;;;;;;55.35;31.63;;;;;;;5.20;100.00;103438.53;10462022;28;20055;-55
2022/01/22 21:42:07;;;;;;;53.22;33.78;;;;;;;5.07;100.00;103441.03;10462155;28;20481;-56
2022/01/22 21:47:10;;;;;;;55.78;36.92;;;;;;;5.09;100.00;103439.31;10460226;28;20143;-54
2022/01/22 21:52:12;;;;;;;56.13;36.55;;;;;;;4.98;100.00;103440.09;10461159;28;20056;-54
2022/01/22 21:57:15;;;;;;;48.00;34.75;;;;;;;4.92;100.00;103434.84;10460026;28;20499;-53
2022/01/22 22:02:17;;;;;;;51.58;34.25;;;;;;;4.99;100.00;103434.06;10460727;28;20056;-59
2022/01/22 22:07:29;;;;;;;66.70;36.55;;;;;;;4.96;100.00;103438.31;10460414;28;20041;-54
2022/01/22 22:12:31;;;;;;;59.08;39.10;;;;;;;4.84;100.00;103442.56;10460034;28;20064;-54
2022/01/22 22:17:34;;;;;;;57.15;35.17;;;;;;;4.98;100.00;103441.84;10461494;28;20057;-56
2022/01/22 22:22:36;;;;;;;51.53;34.80;;;;;;;4.99;100.00;103446.16;10459747;28;20501;-57
2022/01/22 22:27:42;;;;;;;51.63;35.42;;;;;;;5.19;100.00;103446.31;10460414;28;20047;-58
2022/01/22 22:32:48;;;;;;;58.38;36.75;;;;;;;5.21;100.00;103448.06;10459565;28;20056;-58
2022/01/22 22:37:51;;;;;;;61.40;37.45;;;;;;;5.21;100.00;103450.66;10459597;28;20397;-59
2022/01/22 22:42:54;;;;;;;56.30;35.15;;;;;;;5.13;100.00;103454.94;10458303;28;20049;-54
2022/01/22 22:47:57;;;;;;;56.13;36.28;;;;;;;4.96;100.00;103454.78;10459044;28;20048;-57
2022/01/22 22:53:00;;;;;;;56.47;36.83;;;;;;;5.11;100.00;103458.34;10457593;28;20060;-56
2022/01/22 22:58:02;;;;;;;57.05;35.08;;;;;;;5.10;100.00;103461.84;10458530;28;20059;-58
2022/01/22 23:03:04;;;;;;;53.30;35.65;;;;;;;5.09;100.00;103466.13;10458552;28;20045;-56
2022/01/22 23:08:07;;;;;;;58.20;35.03;;;;;;;5.03;100.00;103466.97;10458368;28;20045;-56
2022/01/22 23:13:12;;;;;;;63.83;35.67;;;;;;;5.20;100.00;103477.50;10458501;28;20053;-59
2022/01/22 23:28:42;;;;;;;56.40;34.80;;;;;;;5.39;100.00;103486.28;10457090;28;20481;-54
2022/01/22 23:34:00;;;;;;;62.33;35.15;;;;;;;5.45;100.00;103501.06;10457229;28;20056;-56
2022/01/22 23:55:09;;;;;;;62.30;37.10;;;;;;;5.21;100.00;103475.75;10457063;28;20048;-56
